createdAt,value
2017-12-26T06:05:25.850Z,0
2017-12-26T06:06:06.371Z,0
2017-12-26T06:06:46.909Z,0
2017-12-26T06:07:27.451Z,0
2017-12-26T06:08:07.985Z,0
2017-12-26T06:08:48.494Z,0
2017-12-26T06:09:29.026Z,0
2017-12-26T06:10:09.559Z,0
2017-12-26T06:10:50.087Z,0
2017-12-26T06:11:30.625Z,0
2017-12-26T06:12:11.155Z,0
2017-12-26T06:12:51.724Z,0
2017-12-26T06:13:32.233Z,0
2017-12-26T06:14:12.776Z,0
2017-12-26T06:14:53.313Z,0
2017-12-26T06:15:33.847Z,0
2017-12-26T06:16:14.370Z,0
2017-12-26T06:16:54.910Z,0
2017-12-26T06:17:35.450Z,0
2017-12-26T06:18:15.984Z,0
2017-12-26T06:18:56.520Z,0
2017-12-26T06:19:37.060Z,0
2017-12-26T06:20:17.578Z,0
2017-12-26T06:20:58.105Z,0
2017-12-26T06:21:38.623Z,0
2017-12-26T06:22:19.153Z,0
2017-12-26T06:22:59.657Z,0
2017-12-26T06:23:40.259Z,0
2017-12-26T06:24:20.800Z,0
2017-12-26T06:25:01.313Z,0
2017-12-26T06:25:41.835Z,0
2017-12-26T06:26:22.354Z,0
2017-12-26T06:27:02.852Z,0
2017-12-26T06:27:43.399Z,0
2017-12-26T06:28:23.928Z,0
2017-12-26T06:29:04.480Z,0
2017-12-26T06:29:44.956Z,0
2017-12-26T06:30:25.477Z,0
2017-12-26T06:31:06.002Z,0
2017-12-26T06:31:46.527Z,0
2017-12-26T06:32:27.048Z,0
2017-12-26T06:33:07.579Z,0
2017-12-26T06:33:48.121Z,0
2017-12-26T06:34:28.656Z,0
2017-12-26T06:35:09.198Z,0
2017-12-26T06:35:49.745Z,0
2017-12-26T06:36:30.251Z,0
2017-12-26T06:37:10.784Z,0
2017-12-26T06:37:51.328Z,0
2017-12-26T06:38:31.867Z,0
2017-12-26T06:39:12.378Z,0
2017-12-26T06:39:52.910Z,0
2017-12-26T06:40:33.437Z,0
2017-12-26T06:41:13.960Z,0
2017-12-26T06:41:54.492Z,0
2017-12-26T06:42:35.025Z,0
2017-12-26T06:43:15.552Z,0
2017-12-26T06:43:56.105Z,0
2017-12-26T06:44:36.658Z,0
2017-12-26T06:45:17.250Z,0
2017-12-26T06:45:57.795Z,0
2017-12-26T06:46:38.320Z,0
2017-12-26T06:47:18.846Z,0
2017-12-26T06:47:59.385Z,0
2017-12-26T06:48:39.932Z,0
2017-12-26T06:49:20.467Z,0
2017-12-26T06:50:00.977Z,0
2017-12-26T06:50:41.535Z,0
2017-12-26T06:51:22.084Z,0
2017-12-26T06:52:02.849Z,0
2017-12-26T06:52:43.407Z,0
2017-12-26T06:53:23.949Z,0
2017-12-26T06:54:04.510Z,0
2017-12-26T06:54:45.140Z,0
2017-12-26T06:55:25.736Z,0
2017-12-26T06:56:06.298Z,0
2017-12-26T06:56:46.838Z,0
2017-12-26T06:57:27.581Z,0
2017-12-26T06:58:08.191Z,0
2017-12-26T06:58:48.858Z,0
2017-12-26T06:59:29.403Z,0
2017-12-26T07:00:10.021Z,0
2017-12-26T07:00:50.579Z,0
2017-12-26T07:01:31.113Z,0
2017-12-26T07:02:11.653Z,0
2017-12-26T07:02:52.169Z,0
2017-12-26T07:03:32.727Z,0
2017-12-26T07:04:13.251Z,0
2017-12-26T07:04:53.784Z,0
2017-12-26T07:05:34.383Z,0
2017-12-26T07:06:14.929Z,0
2017-12-26T07:06:55.447Z,0
2017-12-26T07:07:35.989Z,0
2017-12-26T07:08:16.524Z,0
2017-12-26T07:08:57.068Z,0
2017-12-26T07:09:37.606Z,0
2017-12-26T07:10:18.134Z,0
2017-12-26T07:10:58.673Z,0
2017-12-26T07:11:39.203Z,0
2017-12-26T07:12:19.736Z,0
2017-12-26T07:13:00.314Z,0
2017-12-26T07:13:40.901Z,0
2017-12-26T07:14:21.386Z,0
2017-12-26T07:15:01.900Z,0
2017-12-26T07:15:42.467Z,0
2017-12-26T07:16:23.027Z,0
2017-12-26T07:17:03.574Z,0
2017-12-26T07:17:44.093Z,0
2017-12-26T07:18:24.785Z,0
2017-12-26T07:19:05.351Z,0
2017-12-26T07:19:45.966Z,0
2017-12-26T07:20:26.623Z,0
2017-12-26T07:21:07.199Z,0
2017-12-26T07:21:47.715Z,0
2017-12-26T07:22:28.233Z,0
2017-12-26T07:23:08.756Z,0
2017-12-26T07:23:49.288Z,0
2017-12-26T07:24:29.861Z,0
2017-12-26T07:25:10.335Z,0
2017-12-26T07:25:50.861Z,0
2017-12-26T07:26:31.400Z,0
2017-12-26T07:27:11.979Z,0
2017-12-26T07:27:52.525Z,0
2017-12-26T07:28:33.057Z,0
2017-12-26T07:29:13.588Z,0
2017-12-26T07:29:54.141Z,0
2017-12-26T07:30:34.677Z,0
2017-12-26T07:31:15.218Z,0
2017-12-26T07:31:55.747Z,0
2017-12-26T07:32:36.283Z,0
2017-12-26T07:33:16.812Z,0
2017-12-26T07:33:57.354Z,0
2017-12-26T07:34:37.887Z,0
2017-12-26T07:35:18.418Z,0
2017-12-26T07:35:58.962Z,0
2017-12-26T07:36:39.484Z,0
2017-12-26T07:37:19.999Z,0
2017-12-26T07:38:00.535Z,0
2017-12-26T07:38:41.060Z,0
2017-12-26T07:39:21.581Z,0
2017-12-26T07:40:02.112Z,0
2017-12-26T07:40:42.625Z,0
2017-12-26T07:41:23.119Z,0
2017-12-26T07:42:03.858Z,0
2017-12-26T07:42:44.553Z,0
2017-12-26T07:43:25.212Z,0
2017-12-26T07:44:05.825Z,0
2017-12-26T07:44:46.596Z,0
2017-12-26T07:45:27.273Z,0
2017-12-26T07:46:07.850Z,0
2017-12-26T07:46:48.378Z,0
2017-12-26T07:47:28.929Z,0
2017-12-26T07:48:09.490Z,0
2017-12-26T07:48:50.270Z,0
2017-12-26T07:49:30.786Z,0
2017-12-26T07:50:11.431Z,0
2017-12-26T07:50:52.053Z,0
2017-12-26T07:51:32.540Z,0
2017-12-26T07:52:13.086Z,0
2017-12-26T07:52:53.645Z,0
2017-12-26T07:53:34.531Z,0
2017-12-26T07:54:15.064Z,0
2017-12-26T07:54:55.593Z,0
2017-12-26T07:55:36.268Z,0
2017-12-26T07:56:16.805Z,0
2017-12-26T07:56:57.355Z,0
2017-12-26T07:57:37.886Z,0
2017-12-26T07:58:18.415Z,0
2017-12-26T07:58:59.030Z,0
2017-12-26T07:59:39.662Z,0
2017-12-26T08:00:20.440Z,0
2017-12-26T08:01:00.972Z,0
2017-12-26T08:01:41.767Z,0
2017-12-26T08:02:22.401Z,0
2017-12-26T08:03:03.128Z,0
2017-12-26T08:03:43.665Z,0
2017-12-26T08:04:24.364Z,0
2017-12-26T08:05:05.111Z,0
2017-12-26T08:05:45.725Z,0
2017-12-26T08:06:26.710Z,0
2017-12-26T08:07:07.302Z,0
2017-12-26T08:07:48.047Z,0
2017-12-26T08:08:28.576Z,0
2017-12-26T08:09:09.116Z,0
2017-12-26T08:09:49.649Z,0
2017-12-26T08:10:30.188Z,0
2017-12-26T08:11:10.727Z,0
2017-12-26T08:11:51.263Z,0
2017-12-26T08:12:31.814Z,0
2017-12-26T08:13:12.426Z,0
2017-12-26T08:13:53.084Z,0
2017-12-26T08:14:33.823Z,0
2017-12-26T08:15:14.486Z,0
2017-12-26T08:15:55.086Z,0
2017-12-26T08:16:35.835Z,0
2017-12-26T08:17:16.418Z,0
2017-12-26T08:17:57.074Z,0
2017-12-26T08:18:37.887Z,0
2017-12-26T08:19:18.416Z,0
2017-12-26T08:19:58.977Z,5
2017-12-26T08:20:39.505Z,5
2017-12-26T08:21:20.142Z,5
2017-12-26T08:22:00.771Z,5
2017-12-26T08:22:41.287Z,5
2017-12-26T08:23:22.152Z,5
2017-12-26T08:24:02.692Z,5
2017-12-26T08:24:43.235Z,0
2017-12-26T08:25:23.755Z,5
2017-12-26T08:26:06.307Z,5
2017-12-26T08:26:49.050Z,0
2017-12-26T08:27:31.727Z,0
2017-12-26T08:28:14.039Z,0
2017-12-26T08:28:54.764Z,0
2017-12-26T08:29:35.378Z,0
2017-12-26T08:30:15.898Z,0
2017-12-26T08:30:56.521Z,0
2017-12-26T08:31:37.013Z,0
2017-12-26T08:32:17.882Z,0
2017-12-26T08:32:58.386Z,0
2017-12-26T08:33:38.942Z,0
2017-12-26T08:34:19.822Z,5
2017-12-26T08:35:00.353Z,5
2017-12-26T08:35:41.617Z,5
2017-12-26T08:36:23.740Z,5
2017-12-26T08:37:06.835Z,5
2017-12-26T08:37:51.840Z,5
2017-12-26T08:38:32.378Z,5
2017-12-26T08:39:12.922Z,5
2017-12-26T08:39:53.445Z,5
2017-12-26T08:40:33.983Z,5
2017-12-26T08:41:14.515Z,5
2017-12-26T08:41:55.049Z,5
2017-12-26T08:42:35.574Z,5
2017-12-26T08:43:16.112Z,5
2017-12-26T08:43:56.638Z,5
2017-12-26T08:44:37.167Z,5
2017-12-26T08:45:17.713Z,5
2017-12-26T08:45:58.235Z,5
2017-12-26T08:46:38.761Z,5
2017-12-26T08:47:19.315Z,5
2017-12-26T08:47:59.839Z,5
2017-12-26T08:48:40.388Z,5
2017-12-26T08:49:20.934Z,5
2017-12-26T08:50:01.474Z,5
2017-12-26T08:50:42.007Z,5
2017-12-26T08:51:22.537Z,5
2017-12-26T08:52:03.074Z,5
2017-12-26T08:52:43.609Z,5
2017-12-26T08:53:24.151Z,5
2017-12-26T08:54:04.693Z,5
2017-12-26T08:54:45.213Z,5
2017-12-26T08:55:25.756Z,5
2017-12-26T08:56:06.294Z,5
2017-12-26T08:56:46.822Z,10
2017-12-26T08:57:27.347Z,10
2017-12-26T08:58:07.887Z,10
2017-12-26T08:58:48.423Z,10
2017-12-26T08:59:28.946Z,10
2017-12-26T09:00:09.480Z,10
2017-12-26T09:00:50.015Z,10
2017-12-26T09:01:30.600Z,10
2017-12-26T09:02:11.188Z,10
2017-12-26T09:02:51.721Z,10
2017-12-26T09:03:32.278Z,10
2017-12-26T09:04:12.815Z,10
2017-12-26T09:04:53.341Z,10
2017-12-26T09:05:33.876Z,10
2017-12-26T09:06:14.404Z,10
2017-12-26T09:06:54.951Z,10
2017-12-26T09:07:35.482Z,15
2017-12-26T09:08:16.010Z,15
2017-12-26T09:08:56.534Z,15
2017-12-26T09:09:37.056Z,15
2017-12-26T09:10:17.588Z,15
2017-12-26T09:10:58.137Z,15
2017-12-26T09:11:38.680Z,15
2017-12-26T09:12:19.204Z,15
2017-12-26T09:12:59.742Z,20
2017-12-26T09:13:40.275Z,20
2017-12-26T09:14:20.814Z,20
2017-12-26T09:15:01.346Z,20
2017-12-26T09:15:41.891Z,20
2017-12-26T09:16:22.420Z,15
2017-12-26T09:17:02.950Z,20
2017-12-26T09:17:43.477Z,20
2017-12-26T09:18:24.011Z,20
2017-12-26T09:19:04.547Z,15
2017-12-26T09:19:45.092Z,15
2017-12-26T09:20:25.624Z,20
2017-12-26T09:21:06.161Z,20
2017-12-26T09:21:46.700Z,20
2017-12-26T09:22:27.234Z,25
2017-12-26T09:23:07.770Z,25
2017-12-26T09:23:48.307Z,20
2017-12-26T09:24:28.849Z,20
2017-12-26T09:25:09.380Z,20
2017-12-26T09:25:49.914Z,20
2017-12-26T09:26:30.444Z,20
2017-12-26T09:27:10.982Z,20
2017-12-26T09:27:51.532Z,20
2017-12-26T09:28:32.070Z,20
2017-12-26T09:29:12.600Z,25
2017-12-26T09:29:53.150Z,25
2017-12-26T09:30:33.675Z,30
2017-12-26T09:31:14.208Z,35
2017-12-26T09:31:54.739Z,40
2017-12-26T09:32:35.294Z,45
2017-12-26T09:33:15.827Z,45
2017-12-26T09:33:56.363Z,45
2017-12-26T09:34:36.903Z,45
2017-12-26T09:35:17.432Z,40
2017-12-26T09:35:57.953Z,35
2017-12-26T09:36:38.495Z,25
2017-12-26T09:37:19.030Z,25
2017-12-26T09:37:59.571Z,15
2017-12-26T09:38:40.107Z,15
2017-12-26T09:39:20.642Z,15
2017-12-26T09:40:01.176Z,15
2017-12-26T09:40:41.773Z,20
2017-12-26T09:41:22.276Z,25
2017-12-26T09:42:02.809Z,30
2017-12-26T09:42:43.336Z,25
2017-12-26T09:43:23.872Z,15
2017-12-26T09:44:04.412Z,20
2017-12-26T09:44:44.938Z,35
2017-12-26T09:45:25.462Z,40
2017-12-26T09:46:06.003Z,35
2017-12-26T09:46:46.539Z,30
2017-12-26T09:47:27.068Z,35
2017-12-26T09:48:07.604Z,40
2017-12-26T09:48:48.143Z,45
2017-12-26T09:49:28.771Z,45
2017-12-26T09:50:09.303Z,45
2017-12-26T09:50:49.835Z,45
2017-12-26T09:51:30.380Z,45
2017-12-26T09:52:10.910Z,40
2017-12-26T09:52:51.457Z,40
2017-12-26T09:53:31.983Z,40
2017-12-26T09:54:12.521Z,40
2017-12-26T09:54:53.043Z,45
2017-12-26T09:55:33.591Z,45
2017-12-26T09:56:14.124Z,40
2017-12-26T09:56:54.658Z,40
2017-12-26T09:57:35.187Z,35
2017-12-26T09:58:15.722Z,35
2017-12-26T09:58:56.245Z,35
2017-12-26T09:59:36.775Z,35
2017-12-26T10:00:17.306Z,40
2017-12-26T10:00:57.843Z,40
2017-12-26T10:01:38.374Z,40
2017-12-26T10:02:18.935Z,40
2017-12-26T10:02:59.471Z,40
2017-12-26T10:03:40.010Z,40
2017-12-26T10:04:20.533Z,45
2017-12-26T10:05:01.071Z,50
2017-12-26T10:05:41.603Z,50
2017-12-26T10:06:22.139Z,50
2017-12-26T10:07:02.670Z,50
2017-12-26T10:07:43.215Z,50
2017-12-26T10:08:23.750Z,50
2017-12-26T10:09:04.290Z,50
2017-12-26T10:09:44.835Z,50
2017-12-26T10:10:25.371Z,50
2017-12-26T10:11:05.920Z,45
2017-12-26T10:11:46.459Z,45
2017-12-26T10:12:27.011Z,45
2017-12-26T10:13:07.534Z,45
2017-12-26T10:13:48.070Z,50
2017-12-26T10:14:28.607Z,50
2017-12-26T10:15:09.150Z,55
2017-12-26T10:15:49.695Z,60
2017-12-26T10:16:30.212Z,65
2017-12-26T10:17:10.753Z,65
2017-12-26T10:17:51.285Z,65
2017-12-26T10:18:31.803Z,60
2017-12-26T10:19:12.341Z,60
2017-12-26T10:19:52.877Z,65
2017-12-26T10:20:33.413Z,65
2017-12-26T10:21:13.955Z,60
2017-12-26T10:21:54.484Z,60
2017-12-26T10:22:35.019Z,60
2017-12-26T10:23:15.548Z,65
2017-12-26T10:23:56.075Z,65
2017-12-26T10:24:36.640Z,60
2017-12-26T10:25:17.169Z,60
2017-12-26T10:25:57.704Z,55
2017-12-26T10:26:38.246Z,50
2017-12-26T10:27:18.771Z,50
2017-12-26T10:27:59.309Z,50
2017-12-26T10:28:39.838Z,55
2017-12-26T10:29:20.383Z,55
2017-12-26T10:30:00.917Z,55
2017-12-26T10:30:41.445Z,50
2017-12-26T10:31:21.993Z,50
2017-12-26T10:32:02.527Z,55
2017-12-26T10:32:43.062Z,55
2017-12-26T10:33:23.605Z,60
2017-12-26T10:34:04.131Z,65
2017-12-26T10:34:44.676Z,70
2017-12-26T10:35:25.212Z,70
2017-12-26T10:36:05.748Z,70
2017-12-26T10:36:46.296Z,70
2017-12-26T10:37:26.832Z,70
2017-12-26T10:38:07.380Z,75
2017-12-26T10:38:47.911Z,80
2017-12-26T10:39:28.459Z,85
2017-12-26T10:40:08.989Z,90
2017-12-26T10:40:49.526Z,85
2017-12-26T10:41:30.066Z,80
2017-12-26T10:42:10.642Z,80
2017-12-26T10:42:51.158Z,75
2017-12-26T10:43:31.699Z,75
2017-12-26T10:44:12.236Z,80
2017-12-26T10:44:52.767Z,90
2017-12-26T10:45:33.316Z,95
2017-12-26T10:46:13.849Z,100
2017-12-26T10:46:54.384Z,100
2017-12-26T10:47:34.924Z,100
2017-12-26T10:48:15.464Z,105
2017-12-26T10:48:56.003Z,110
2017-12-26T10:49:36.541Z,100
2017-12-26T10:50:17.071Z,100
2017-12-26T10:50:57.620Z,100
2017-12-26T10:51:38.213Z,100
2017-12-26T10:52:18.697Z,95
2017-12-26T10:52:59.231Z,90
2017-12-26T10:53:39.753Z,85
2017-12-26T10:54:20.292Z,90
2017-12-26T10:55:00.826Z,95
2017-12-26T10:55:41.360Z,95
2017-12-26T10:56:21.903Z,95
2017-12-26T10:57:02.433Z,100
2017-12-26T10:57:42.983Z,100
2017-12-26T10:58:23.530Z,100
2017-12-26T10:59:04.070Z,100
2017-12-26T10:59:44.612Z,100
2017-12-26T11:00:25.132Z,100
2017-12-26T11:01:05.683Z,100
2017-12-26T11:01:46.211Z,100
2017-12-26T11:02:26.731Z,100
2017-12-26T11:03:07.276Z,100
2017-12-26T11:03:47.820Z,100
2017-12-26T11:04:28.406Z,95
2017-12-26T11:05:08.896Z,95
2017-12-26T11:05:49.438Z,100
2017-12-26T11:06:29.967Z,105
2017-12-26T11:07:10.506Z,110
2017-12-26T11:07:51.045Z,110
2017-12-26T11:08:31.578Z,110
2017-12-26T11:09:12.117Z,105
2017-12-26T11:09:52.659Z,100
2017-12-26T11:10:33.193Z,95
2017-12-26T11:11:13.741Z,95
2017-12-26T11:11:54.288Z,95
2017-12-26T11:12:34.815Z,100
2017-12-26T11:13:15.352Z,100
2017-12-26T11:13:55.887Z,105
2017-12-26T11:14:36.412Z,110
2017-12-26T11:15:16.945Z,115
2017-12-26T11:15:57.482Z,115
2017-12-26T11:16:38.026Z,115
2017-12-26T11:17:18.567Z,120
2017-12-26T11:17:59.108Z,130
2017-12-26T11:18:39.641Z,140
2017-12-26T11:19:20.191Z,150
2017-12-26T11:20:00.742Z,160
2017-12-26T11:20:41.280Z,165
2017-12-26T11:21:21.858Z,170
2017-12-26T11:22:02.347Z,175
2017-12-26T11:22:42.885Z,180
2017-12-26T11:23:23.419Z,190
2017-12-26T11:24:03.942Z,205
2017-12-26T11:24:44.489Z,220
2017-12-26T11:25:25.024Z,230
2017-12-26T11:26:05.541Z,240
2017-12-26T11:26:46.084Z,245
2017-12-26T11:27:26.621Z,250
2017-12-26T11:28:07.160Z,255
2017-12-26T11:28:47.706Z,260
2017-12-26T11:29:28.244Z,265
2017-12-26T11:30:08.794Z,275
2017-12-26T11:30:49.344Z,290
2017-12-26T11:31:29.880Z,305
2017-12-26T11:32:10.419Z,295
2017-12-26T11:32:50.950Z,300
2017-12-26T11:33:31.488Z,315
2017-12-26T11:34:12.019Z,330
2017-12-26T11:34:52.563Z,335
2017-12-26T11:35:33.098Z,350
2017-12-26T11:36:13.647Z,355
2017-12-26T11:36:54.184Z,330
2017-12-26T11:37:34.737Z,285
2017-12-26T11:38:15.279Z,405
2017-12-26T11:38:55.813Z,410
2017-12-26T11:39:36.335Z,385
2017-12-26T11:40:16.870Z,395
2017-12-26T11:40:57.421Z,400
2017-12-26T11:41:37.951Z,400
2017-12-26T11:42:18.500Z,410
2017-12-26T11:42:59.034Z,390
2017-12-26T11:43:39.567Z,425
2017-12-26T11:44:20.100Z,435
2017-12-26T11:45:00.627Z,800
2017-12-26T11:45:41.147Z,555
2017-12-26T11:46:21.691Z,520
2017-12-26T11:47:02.227Z,530
2017-12-26T11:47:42.811Z,560
2017-12-26T11:48:23.377Z,645
2017-12-26T11:49:03.928Z,835
2017-12-26T11:49:44.456Z,960
2017-12-26T11:50:25.003Z,460
2017-12-26T11:51:05.533Z,185
2017-12-26T11:51:46.079Z,405
2017-12-26T11:52:26.607Z,830
2017-12-26T11:53:07.138Z,640
2017-12-26T11:53:47.692Z,585
2017-12-26T11:54:28.226Z,340
2017-12-26T11:55:08.758Z,430
2017-12-26T11:55:49.306Z,165
2017-12-26T11:56:29.842Z,750
2017-12-26T11:57:10.381Z,240
2017-12-26T11:57:50.925Z,1035
2017-12-26T11:58:31.469Z,320
2017-12-26T11:59:11.999Z,275
2017-12-26T11:59:52.547Z,225
2017-12-26T12:00:33.080Z,200
2017-12-26T12:01:13.626Z,205
2017-12-26T12:01:54.175Z,195
2017-12-26T12:02:34.746Z,200
2017-12-26T12:03:15.279Z,235
2017-12-26T12:03:55.816Z,365
2017-12-26T12:04:36.362Z,1010
2017-12-26T12:05:16.905Z,470
2017-12-26T12:05:57.454Z,1245
2017-12-26T12:06:37.975Z,1285
2017-12-26T12:07:18.511Z,1325
2017-12-26T12:07:59.048Z,1090
2017-12-26T12:08:39.593Z,1170
2017-12-26T12:09:20.121Z,1245
2017-12-26T12:10:00.714Z,1245
2017-12-26T12:10:41.257Z,1185
2017-12-26T12:11:21.803Z,250
2017-12-26T12:12:02.345Z,1155
2017-12-26T12:12:42.886Z,820
2017-12-26T12:13:23.423Z,390
2017-12-26T12:14:03.988Z,1115
2017-12-26T12:14:44.526Z,1145
2017-12-26T12:15:25.077Z,1265
2017-12-26T12:16:05.625Z,1145
2017-12-26T12:16:46.167Z,1075
2017-12-26T12:17:26.715Z,1230
2017-12-26T12:18:07.243Z,1265
2017-12-26T12:18:47.783Z,1215
2017-12-26T12:19:28.323Z,1180
2017-12-26T12:20:08.868Z,1240
2017-12-26T12:20:49.412Z,1270
2017-12-26T12:21:29.953Z,1130
2017-12-26T12:22:10.494Z,1240
2017-12-26T12:22:51.041Z,1240
2017-12-26T12:23:31.596Z,1220
2017-12-26T12:24:12.152Z,1225
2017-12-26T12:24:52.696Z,1220
2017-12-26T12:25:33.226Z,245
2017-12-26T12:26:13.778Z,190
2017-12-26T12:26:54.329Z,1000
2017-12-26T12:27:34.876Z,1255
2017-12-26T12:28:15.424Z,525
2017-12-26T12:28:55.968Z,310
2017-12-26T12:29:36.517Z,605
2017-12-26T12:30:17.057Z,180
2017-12-26T12:30:57.601Z,130
2017-12-26T12:31:38.143Z,475
2017-12-26T12:32:18.692Z,135
2017-12-26T12:32:59.231Z,145
2017-12-26T12:33:39.767Z,155
2017-12-26T12:34:20.310Z,340
2017-12-26T12:35:00.860Z,880
2017-12-26T12:35:41.413Z,790
2017-12-26T12:36:21.947Z,795
2017-12-26T12:37:02.496Z,735
2017-12-26T12:37:43.040Z,725
2017-12-26T12:38:23.578Z,615
2017-12-26T12:39:04.127Z,680
2017-12-26T12:39:44.684Z,905
2017-12-26T12:40:25.218Z,920
2017-12-26T12:41:05.758Z,855
2017-12-26T12:41:46.301Z,780
2017-12-26T12:42:26.839Z,895
2017-12-26T12:43:07.380Z,855
2017-12-26T12:43:47.921Z,855
2017-12-26T12:44:28.464Z,755
2017-12-26T12:45:09.007Z,825
2017-12-26T12:45:49.548Z,825
2017-12-26T12:46:30.084Z,780
2017-12-26T12:47:10.626Z,595
2017-12-26T12:47:51.162Z,650
2017-12-26T12:48:31.704Z,675
2017-12-26T12:49:12.246Z,565
2017-12-26T12:49:52.783Z,470
2017-12-26T12:50:33.323Z,505
2017-12-26T12:51:13.863Z,595
2017-12-26T12:51:54.412Z,670
2017-12-26T12:52:34.958Z,775
2017-12-26T12:53:15.492Z,280
2017-12-26T12:53:56.031Z,130
2017-12-26T12:54:36.564Z,120
2017-12-26T12:55:17.103Z,105
2017-12-26T12:55:57.648Z,105
2017-12-26T12:56:38.190Z,100
2017-12-26T12:57:18.741Z,110
2017-12-26T12:57:59.301Z,120
2017-12-26T12:58:39.837Z,120
2017-12-26T12:59:20.384Z,120
2017-12-26T13:00:00.923Z,125
2017-12-26T13:00:41.461Z,120
2017-12-26T13:01:22.006Z,110
2017-12-26T13:02:02.551Z,95
2017-12-26T13:02:43.103Z,85
2017-12-26T13:03:23.632Z,90
2017-12-26T13:04:04.193Z,90
2017-12-26T13:04:44.796Z,85
2017-12-26T13:05:25.271Z,90
2017-12-26T13:06:05.821Z,100
2017-12-26T13:06:46.361Z,100
2017-12-26T13:07:26.898Z,95
2017-12-26T13:08:07.447Z,95
2017-12-26T13:08:47.982Z,95
2017-12-26T13:09:28.514Z,110
2017-12-26T13:10:09.060Z,135
2017-12-26T13:10:49.610Z,155
2017-12-26T13:11:30.160Z,165
2017-12-26T13:12:10.698Z,160
2017-12-26T13:12:51.230Z,150
2017-12-26T13:13:31.774Z,145
2017-12-26T13:14:12.319Z,145
2017-12-26T13:14:52.855Z,135
2017-12-26T13:15:33.406Z,120
2017-12-26T13:16:13.959Z,110
2017-12-26T13:16:54.507Z,100
2017-12-26T13:17:35.043Z,95
2017-12-26T13:18:15.595Z,95
2017-12-26T13:18:56.144Z,100
2017-12-26T13:19:36.700Z,100
2017-12-26T13:20:17.245Z,105
2017-12-26T13:20:57.792Z,110
2017-12-26T13:21:38.333Z,110
2017-12-26T13:22:18.876Z,115
2017-12-26T13:22:59.422Z,110
2017-12-26T13:23:39.969Z,100
2017-12-26T13:24:20.506Z,95
2017-12-26T13:25:01.048Z,85
2017-12-26T13:25:41.575Z,85
2017-12-26T13:26:22.121Z,80
2017-12-26T13:27:02.663Z,70
2017-12-26T13:27:43.201Z,65
2017-12-26T13:28:23.745Z,70
2017-12-26T13:29:04.300Z,75
2017-12-26T13:29:44.848Z,80
2017-12-26T13:30:25.382Z,80
2017-12-26T13:31:05.923Z,75
2017-12-26T13:31:46.470Z,80
2017-12-26T13:32:27.009Z,75
2017-12-26T13:33:07.544Z,75
2017-12-26T13:33:48.089Z,75
2017-12-26T13:34:28.627Z,85
2017-12-26T13:35:09.163Z,95
2017-12-26T13:35:49.703Z,100
2017-12-26T13:36:30.250Z,100
2017-12-26T13:37:10.776Z,95
2017-12-26T13:37:51.323Z,90
2017-12-26T13:38:31.852Z,80
2017-12-26T13:39:12.386Z,75
2017-12-26T13:39:52.927Z,80
2017-12-26T13:40:33.467Z,115
2017-12-26T13:41:13.995Z,120
2017-12-26T13:41:54.543Z,110
2017-12-26T13:42:35.073Z,95
2017-12-26T13:43:15.608Z,85
2017-12-26T13:43:56.143Z,80
2017-12-26T13:44:36.667Z,80
2017-12-26T13:45:17.208Z,90
2017-12-26T13:45:57.754Z,90
2017-12-26T13:46:38.298Z,95
2017-12-26T13:47:18.847Z,95
2017-12-26T13:47:59.389Z,85
2017-12-26T13:48:39.925Z,80
2017-12-26T13:49:20.458Z,75
2017-12-26T13:50:01.001Z,70
2017-12-26T13:50:41.540Z,75
2017-12-26T13:51:22.085Z,70
2017-12-26T13:52:02.623Z,70
2017-12-26T13:52:43.156Z,65
2017-12-26T13:53:23.692Z,65
2017-12-26T13:54:04.227Z,70
2017-12-26T13:54:44.756Z,75
2017-12-26T13:55:25.289Z,75
2017-12-26T13:56:05.832Z,80
2017-12-26T13:56:46.382Z,80
2017-12-26T13:57:26.926Z,80
2017-12-26T13:58:07.457Z,80
2017-12-26T13:58:47.996Z,85
2017-12-26T13:59:28.531Z,80
2017-12-26T14:00:09.065Z,80
2017-12-26T14:00:49.595Z,85
2017-12-26T14:01:30.174Z,80
2017-12-26T14:02:10.682Z,70
2017-12-26T14:02:51.232Z,60
2017-12-26T14:03:31.776Z,60
2017-12-26T14:04:12.329Z,55
2017-12-26T14:04:52.867Z,55
2017-12-26T14:05:33.399Z,50
2017-12-26T14:06:13.923Z,55
2017-12-26T14:06:54.458Z,65
2017-12-26T14:07:35.001Z,65
2017-12-26T14:08:15.537Z,70
2017-12-26T14:08:56.079Z,70
2017-12-26T14:09:36.654Z,70
2017-12-26T14:10:17.184Z,65
2017-12-26T14:10:57.728Z,55
2017-12-26T14:11:38.271Z,45
2017-12-26T14:12:18.799Z,50
2017-12-26T14:12:59.370Z,50
2017-12-26T14:13:39.906Z,55
2017-12-26T14:14:20.426Z,55
2017-12-26T14:15:00.953Z,55
2017-12-26T14:15:41.494Z,60
2017-12-26T14:16:22.029Z,55
2017-12-26T14:17:02.565Z,55
2017-12-26T14:17:43.096Z,65
2017-12-26T14:18:23.619Z,70
2017-12-26T14:19:04.166Z,70
2017-12-26T14:19:44.700Z,75
2017-12-26T14:20:25.227Z,75
2017-12-26T14:21:05.763Z,75
2017-12-26T14:21:46.310Z,75
2017-12-26T14:22:26.833Z,75
2017-12-26T14:23:07.377Z,75
2017-12-26T14:23:47.918Z,75
2017-12-26T14:24:28.470Z,75
2017-12-26T14:25:09.004Z,75
2017-12-26T14:25:49.532Z,70
2017-12-26T14:26:30.074Z,65
2017-12-26T14:27:10.599Z,60
2017-12-26T14:27:51.139Z,55
2017-12-26T14:28:31.675Z,50
2017-12-26T14:29:12.220Z,50
2017-12-26T14:29:52.759Z,45
2017-12-26T14:30:33.286Z,45
2017-12-26T14:31:13.815Z,45
2017-12-26T14:31:54.371Z,45
2017-12-26T14:32:34.907Z,45
2017-12-26T14:33:15.438Z,45
2017-12-26T14:33:55.973Z,45
2017-12-26T14:34:36.509Z,40
2017-12-26T14:35:17.052Z,40
2017-12-26T14:35:57.589Z,35
2017-12-26T14:36:38.124Z,35
2017-12-26T14:37:18.669Z,35
2017-12-26T14:37:59.209Z,30
2017-12-26T14:38:39.742Z,30
2017-12-26T14:39:20.271Z,30
2017-12-26T14:40:00.811Z,25
2017-12-26T14:40:41.360Z,25
2017-12-26T14:41:21.947Z,25
2017-12-26T14:42:02.485Z,25
2017-12-26T14:42:43.018Z,25
2017-12-26T14:43:23.567Z,25
2017-12-26T14:44:04.115Z,25
2017-12-26T14:44:44.649Z,25
2017-12-26T14:45:25.178Z,25
2017-12-26T14:46:05.712Z,25
2017-12-26T14:46:46.337Z,25
2017-12-26T14:47:26.873Z,25
2017-12-26T14:48:07.416Z,25
2017-12-26T14:48:47.933Z,25
2017-12-26T14:49:28.471Z,25
2017-12-26T14:50:09.011Z,25
2017-12-26T14:50:49.555Z,20
2017-12-26T14:51:30.091Z,20
2017-12-26T14:52:10.628Z,15
2017-12-26T14:52:51.171Z,15
2017-12-26T14:53:31.709Z,15
2017-12-26T14:54:12.249Z,15
2017-12-26T14:54:52.779Z,15
2017-12-26T14:55:33.321Z,20
2017-12-26T14:56:13.858Z,20
2017-12-26T14:56:54.390Z,20
2017-12-26T14:57:34.921Z,25
2017-12-26T14:58:15.463Z,25
2017-12-26T14:58:55.984Z,30
2017-12-26T14:59:36.527Z,30
2017-12-26T15:00:17.060Z,30
2017-12-26T15:00:57.578Z,30
2017-12-26T15:01:38.118Z,25
2017-12-26T15:02:18.655Z,25
2017-12-26T15:02:59.182Z,25
2017-12-26T15:03:39.714Z,25
2017-12-26T15:04:20.256Z,25
2017-12-26T15:05:00.793Z,25
2017-12-26T15:05:41.324Z,20
2017-12-26T15:06:21.847Z,20
2017-12-26T15:07:02.381Z,20
2017-12-26T15:07:42.980Z,20
2017-12-26T15:08:23.507Z,20
2017-12-26T15:09:04.048Z,20
2017-12-26T15:09:44.570Z,20
2017-12-26T15:10:25.100Z,20
2017-12-26T15:11:05.645Z,20
2017-12-26T15:11:46.181Z,15
2017-12-26T15:12:26.727Z,15
2017-12-26T15:13:07.247Z,15
2017-12-26T15:13:47.785Z,15
2017-12-26T15:14:28.319Z,10
2017-12-26T15:15:08.862Z,10
2017-12-26T15:15:49.399Z,10
